Canungra, New South Wales

3:48 PM AEST on May 25, 2015 (GMT +1000)
Bongaree Bribie Island | | Change Station
CLOSE
Current Station
Personal Weather Station
Location: Bongaree, QUEENSLAND
Elevation: 30 ft
Nearby Weather Stations

Elev 30 ft 27.09 °S, 153.17 °E | Updated 13 seconds ago

Scattered Clouds
Scattered Clouds
69.1 °F
Feels Like 69.1 °F
N
0.0
Wind Variable Wind from SSE
Gusts 0.0 mph

Today
High -- | Low -- °F
--% Chance of Precip.
Yesterday
High -- | Low -- °F
Precip. -- in
6:24 AM 5:02 PM
Waxing Crescent, 45% visible
Pressure 30.33 in
Visibility 6.2 miles
Clouds Few 3200 ft
Scattered Clouds 25000 ft
Dew Point 55 °F
Humidity 61%
Rainfall 0.00 in
Snow Depth Not available.
UV 1.0 out of 12
Pollen Not available.
Air Quality Not available.
Flu Activity Not available.
METAR YBBN 250530Z 13008KT 9999 FEW032 SCT250 21/12 Q1027

More Conditions Fewer Conditions

Pressure 30.33 in
Visibility 6.2 miles
Clouds Few 3200 ft
Scattered Clouds 25000 ft
Dew Point 55 °F
Humidity 61%
Rainfall 0.00 in
Snow Depth Not available.
UV 1.0 out of 12
Pollen Not available.
Air Quality Not available.
Flu Activity Not available.
METAR YBBN 250530Z 13008KT 9999 FEW032 SCT250 21/12 Q1027

More Conditions Fewer Conditions

10-Day Weather Forecast

Almanac

Astronomy

May. 25, 2015 Rise Set
Actual Time
Civil Twilight
Nautical Twilight
Astronomical Twilight
Moon
Length of Visible Light
Length of Day
Tomorrow will be .
, % of the Moon is Illuminated

Today's Extremes

Country Highs Country Lows

Community

WunderPhotos

Upload Photos

1,823,956 photos uploaded!

WunderBlogs® & News

Nearby

Air Quality

  Air Quality AQ Index Pollutant
Not available.

Snow Depth

Station Depth Elevation

Earthquake Activity

City Distance Mag. Time & Date
Minimum magnitude displayed is 2.5.

Coastal Water Temperatures

Place Temperature

Stations

Nearby Weather Stations

Station Location Temp. Windchill Dew Point Humidity Wind Precip. Elev Updated Type